sensor_id;sensor_type;location;lat;lon;timestamp;temperature;humidity
5556;DHT22;2801;50.972;7.856;2022-12-18T00:01:36;-11.90;99.90
5556;DHT22;2801;50.972;7.856;2022-12-18T00:04:12;-11.90;99.90
5556;DHT22;2801;50.972;7.856;2022-12-18T00:06:46;-11.90;99.90
5556;DHT22;2801;50.972;7.856;2022-12-18T00:09:16;-11.80;99.90
5556;DHT22;2801;50.972;7.856;2022-12-18T00:11:44;-11.90;99.90
5556;DHT22;2801;50.972;7.856;2022-12-18T00:14:13;-11.90;99.90
5556;DHT22;2801;50.972;7.856;2022-12-18T00:16:43;-11.90;99.90
5556;DHT22;2801;50.972;7.856;2022-12-18T00:19:13;-11.90;99.90
5556;DHT22;2801;50.972;7.856;2022-12-18T00:21:41;-11.90;99.90
5556;DHT22;2801;50.972;7.856;2022-12-18T00:24:10;-11.70;99.90
5556;DHT22;2801;50.972;7.856;2022-12-18T00:26:38;-11.70;99.90
5556;DHT22;2801;50.972;7.856;2022-12-18T00:29:10;-11.70;99.90
5556;DHT22;2801;50.972;7.856;2022-12-18T00:31:43;-11.80;99.90
5556;DHT22;2801;50.972;7.856;2022-12-18T00:34:12;-11.70;99.90
5556;DHT22;2801;50.972;7.856;2022-12-18T00:36:40;-11.70;99.90
5556;DHT22;2801;50.972;7.856;2022-12-18T00:39:10;-11.60;99.90
5556;DHT22;2801;50.972;7.856;2022-12-18T00:41:38;-11.50;99.90
5556;DHT22;2801;50.972;7.856;2022-12-18T00:44:25;-11.50;99.90
5556;DHT22;2801;50.972;7.856;2022-12-18T00:46:52;-11.60;99.90
5556;DHT22;2801;50.972;7.856;2022-12-18T00:49:19;-11.60;99.90
5556;DHT22;2801;50.972;7.856;2022-12-18T00:51:47;-11.70;99.90
5556;DHT22;2801;50.972;7.856;2022-12-18T00:54:15;-11.70;99.90
5556;DHT22;2801;50.972;7.856;2022-12-18T00:56:43;-11.80;99.90
5556;DHT22;2801;50.972;7.856;2022-12-18T00:59:17;-11.80;99.90
5556;DHT22;2801;50.972;7.856;2022-12-18T01:01:45;-11.80;99.90
5556;DHT22;2801;50.972;7.856;2022-12-18T01:04:13;-11.90;99.90
5556;DHT22;2801;50.972;7.856;2022-12-18T01:06:40;-11.90;99.90
5556;DHT22;2801;50.972;7.856;2022-12-18T01:09:08;-11.90;99.90
5556;DHT22;2801;50.972;7.856;2022-12-18T01:11:35;-11.90;99.90
5556;DHT22;2801;50.972;7.856;2022-12-18T01:14:03;-11.90;99.90
5556;DHT22;2801;50.972;7.856;2022-12-18T01:16:32;-12.00;99.90
5556;DHT22;2801;50.972;7.856;2022-12-18T01:19:00;-12.00;99.90
5556;DHT22;2801;50.972;7.856;2022-12-18T01:21:32;-12.00;99.90
5556;DHT22;2801;50.972;7.856;2022-12-18T01:23:59;-11.80;99.90
5556;DHT22;2801;50.972;7.856;2022-12-18T01:26:29;-12.00;99.90
5556;DHT22;2801;50.972;7.856;2022-12-18T01:28:57;-12.00;99.90
5556;DHT22;2801;50.972;7.856;2022-12-18T01:31:30;-12.00;99.90
5556;DHT22;2801;50.972;7.856;2022-12-18T01:34:05;-12.10;99.90
5556;DHT22;2801;50.972;7.856;2022-12-18T01:36:35;-12.20;99.90
5556;DHT22;2801;50.972;7.856;2022-12-18T01:39:12;-12.10;99.90
5556;DHT22;2801;50.972;7.856;2022-12-18T01:41:41;-12.20;99.90
5556;DHT22;2801;50.972;7.856;2022-12-18T01:44:57;-12.20;99.90
5556;DHT22;2801;50.972;7.856;2022-12-18T01:49:58;-12.10;99.90
5556;DHT22;2801;50.972;7.856;2022-12-18T01:52:29;-12.10;99.90
5556;DHT22;2801;50.972;7.856;2022-12-18T01:54:59;-12.10;99.90
5556;DHT22;2801;50.972;7.856;2022-12-18T01:57:28;-12.00;99.90
5556;DHT22;2801;50.972;7.856;2022-12-18T02:00:03;-12.00;99.90
5556;DHT22;2801;50.972;7.856;2022-12-18T02:02:33;-12.10;99.90
5556;DHT22;2801;50.972;7.856;2022-12-18T02:05:02;-11.90;99.90
5556;DHT22;2801;50.972;7.856;2022-12-18T02:10:27;-12.10;99.90
5556;DHT22;2801;50.972;7.856;2022-12-18T02:16:38;-11.90;99.90
5556;DHT22;2801;50.972;7.856;2022-12-18T02:19:30;-11.90;99.90
5556;DHT22;2801;50.972;7.856;2022-12-18T02:27:40;-12.00;99.90
5556;DHT22;2801;50.972;7.856;2022-12-18T02:30:13;-12.00;99.90
5556;DHT22;2801;50.972;7.856;2022-12-18T02:32:45;-12.00;99.90
5556;DHT22;2801;50.972;7.856;2022-12-18T02:35:22;-12.00;99.90
5556;DHT22;2801;50.972;7.856;2022-12-18T02:37:55;-12.00;99.90
5556;DHT22;2801;50.972;7.856;2022-12-18T02:40:25;-12.10;99.90
5556;DHT22;2801;50.972;7.856;2022-12-18T02:42:54;-12.10;99.90
5556;DHT22;2801;50.972;7.856;2022-12-18T02:45:21;-12.10;99.90
5556;DHT22;2801;50.972;7.856;2022-12-18T02:47:49;-12.20;99.90
5556;DHT22;2801;50.972;7.856;2022-12-18T02:50:30;-12.20;99.90
5556;DHT22;2801;50.972;7.856;2022-12-18T02:53:24;-12.20;99.90
5556;DHT22;2801;50.972;7.856;2022-12-18T02:56:09;-12.30;99.90
5556;DHT22;2801;50.972;7.856;2022-12-18T02:59:13;-12.20;99.90
5556;DHT22;2801;50.972;7.856;2022-12-18T03:08:39;-12.20;99.90
5556;DHT22;2801;50.972;7.856;2022-12-18T03:11:12;-12.20;99.90
5556;DHT22;2801;50.972;7.856;2022-12-18T03:13:52;-12.20;99.90
5556;DHT22;2801;50.972;7.856;2022-12-18T03:16:26;-12.30;99.90
5556;DHT22;2801;50.972;7.856;2022-12-18T03:19:08;-12.30;99.90
5556;DHT22;2801;50.972;7.856;2022-12-18T03:21:50;-12.30;99.90
5556;DHT22;2801;50.972;7.856;2022-12-18T03:24:21;-12.40;99.90
5556;DHT22;2801;50.972;7.856;2022-12-18T03:26:53;-12.40;99.90
5556;DHT22;2801;50.972;7.856;2022-12-18T03:29:36;-12.50;99.90
5556;DHT22;2801;50.972;7.856;2022-12-18T03:32:29;-12.60;99.90
5556;DHT22;2801;50.972;7.856;2022-12-18T03:35:03;-12.60;99.90
5556;DHT22;2801;50.972;7.856;2022-12-18T03:37:32;-12.60;99.90
5556;DHT22;2801;50.972;7.856;2022-12-18T03:39:59;-12.60;99.90
5556;DHT22;2801;50.972;7.856;2022-12-18T03:42:37;-12.50;99.90
5556;DHT22;2801;50.972;7.856;2022-12-18T03:45:28;-12.60;99.90
5556;DHT22;2801;50.972;7.856;2022-12-18T03:48:09;-12.60;99.90
5556;DHT22;2801;50.972;7.856;2022-12-18T03:53:58;-12.60;99.90
5556;DHT22;2801;50.972;7.856;2022-12-18T03:56:30;-12.60;99.90
5556;DHT22;2801;50.972;7.856;2022-12-18T03:59:03;-12.60;99.90
5556;DHT22;2801;50.972;7.856;2022-12-18T04:01:40;-12.40;99.90
5556;DHT22;2801;50.972;7.856;2022-12-18T04:04:14;-11.70;99.90
5556;DHT22;2801;50.972;7.856;2022-12-18T04:06:43;-10.90;99.90
5556;DHT22;2801;50.972;7.856;2022-12-18T04:09:13;-10.30;99.90
5556;DHT22;2801;50.972;7.856;2022-12-18T04:11:42;-10.10;99.90
5556;DHT22;2801;50.972;7.856;2022-12-18T04:14:12;-9.90;99.90
5556;DHT22;2801;50.972;7.856;2022-12-18T04:16:43;-9.90;99.90
5556;DHT22;2801;50.972;7.856;2022-12-18T04:19:10;-9.90;99.90
5556;DHT22;2801;50.972;7.856;2022-12-18T04:21:37;-9.90;99.90
5556;DHT22;2801;50.972;7.856;2022-12-18T04:24:04;-9.90;99.90
5556;DHT22;2801;50.972;7.856;2022-12-18T04:26:31;-9.90;99.90
5556;DHT22;2801;50.972;7.856;2022-12-18T04:28:58;-9.90;99.90
5556;DHT22;2801;50.972;7.856;2022-12-18T04:31:25;-9.60;99.90
5556;DHT22;2801;50.972;7.856;2022-12-18T04:33:52;-9.20;99.90
5556;DHT22;2801;50.972;7.856;2022-12-18T04:36:20;-8.70;99.90
5556;DHT22;2801;50.972;7.856;2022-12-18T04:38:47;-8.50;99.90
5556;DHT22;2801;50.972;7.856;2022-12-18T04:41:14;-8.20;99.90
5556;DHT22;2801;50.972;7.856;2022-12-18T04:43:41;-8.40;99.90
5556;DHT22;2801;50.972;7.856;2022-12-18T04:46:10;-8.40;99.90
5556;DHT22;2801;50.972;7.856;2022-12-18T04:48:37;-8.40;99.90
5556;DHT22;2801;50.972;7.856;2022-12-18T04:51:06;-8.20;99.90
5556;DHT22;2801;50.972;7.856;2022-12-18T04:53:33;-8.10;99.90
5556;DHT22;2801;50.972;7.856;2022-12-18T04:56:11;-8.00;99.90
5556;DHT22;2801;50.972;7.856;2022-12-18T04:58:42;-8.00;99.90
5556;DHT22;2801;50.972;7.856;2022-12-18T05:01:13;-7.80;99.90
5556;DHT22;2801;50.972;7.856;2022-12-18T05:03:46;-8.00;99.90
5556;DHT22;2801;50.972;7.856;2022-12-18T05:06:14;-8.00;99.90
5556;DHT22;2801;50.972;7.856;2022-12-18T05:08:42;-8.00;99.90
5556;DHT22;2801;50.972;7.856;2022-12-18T05:11:11;-8.00;99.90
5556;DHT22;2801;50.972;7.856;2022-12-18T05:13:43;-8.00;99.90
5556;DHT22;2801;50.972;7.856;2022-12-18T05:16:12;-7.90;99.90
5556;DHT22;2801;50.972;7.856;2022-12-18T05:18:41;-7.90;99.90
5556;DHT22;2801;50.972;7.856;2022-12-18T05:21:12;-7.90;99.90
5556;DHT22;2801;50.972;7.856;2022-12-18T05:23:40;-7.70;99.90
5556;DHT22;2801;50.972;7.856;2022-12-18T05:26:16;-7.80;99.90
5556;DHT22;2801;50.972;7.856;2022-12-18T05:28:44;-7.70;99.90
5556;DHT22;2801;50.972;7.856;2022-12-18T05:31:13;-7.60;99.90
5556;DHT22;2801;50.972;7.856;2022-12-18T05:33:41;-7.70;99.90
5556;DHT22;2801;50.972;7.856;2022-12-18T05:36:11;-7.60;99.90
5556;DHT22;2801;50.972;7.856;2022-12-18T05:38:41;-7.60;99.90
5556;DHT22;2801;50.972;7.856;2022-12-18T05:41:09;-7.50;99.90
5556;DHT22;2801;50.972;7.856;2022-12-18T05:43:39;-7.50;99.90
5556;DHT22;2801;50.972;7.856;2022-12-18T05:46:15;-7.30;99.90
5556;DHT22;2801;50.972;7.856;2022-12-18T05:48:44;-7.30;99.90
5556;DHT22;2801;50.972;7.856;2022-12-18T05:51:14;-7.20;99.90
5556;DHT22;2801;50.972;7.856;2022-12-18T05:53:43;-7.10;99.90
5556;DHT22;2801;50.972;7.856;2022-12-18T05:56:16;-7.00;99.90
5556;DHT22;2801;50.972;7.856;2022-12-18T05:58:46;-6.90;99.90
5556;DHT22;2801;50.972;7.856;2022-12-18T06:01:15;-6.80;99.90
5556;DHT22;2801;50.972;7.856;2022-12-18T06:03:44;-6.80;99.90
5556;DHT22;2801;50.972;7.856;2022-12-18T06:08:41;-6.80;99.90
5556;DHT22;2801;50.972;7.856;2022-12-18T06:11:13;-6.80;99.90
5556;DHT22;2801;50.972;7.856;2022-12-18T06:13:42;-6.80;99.90
5556;DHT22;2801;50.972;7.856;2022-12-18T06:16:09;-6.80;99.90
5556;DHT22;2801;50.972;7.856;2022-12-18T06:18:39;-6.70;99.90
5556;DHT22;2801;50.972;7.856;2022-12-18T06:21:06;-6.80;99.90
5556;DHT22;2801;50.972;7.856;2022-12-18T06:23:33;-6.70;99.90
5556;DHT22;2801;50.972;7.856;2022-12-18T06:26:08;-6.60;99.90
5556;DHT22;2801;50.972;7.856;2022-12-18T06:28:38;-6.60;99.90
5556;DHT22;2801;50.972;7.856;2022-12-18T06:31:05;-6.60;99.90
5556;DHT22;2801;50.972;7.856;2022-12-18T06:33:34;-6.60;99.90
5556;DHT22;2801;50.972;7.856;2022-12-18T06:36:07;-6.60;99.90
5556;DHT22;2801;50.972;7.856;2022-12-18T06:38:38;-6.60;99.90
5556;DHT22;2801;50.972;7.856;2022-12-18T06:41:08;-6.60;99.90
5556;DHT22;2801;50.972;7.856;2022-12-18T06:43:36;-6.60;99.90
5556;DHT22;2801;50.972;7.856;2022-12-18T06:46:05;-6.60;99.90
5556;DHT22;2801;50.972;7.856;2022-12-18T06:48:33;-6.50;99.90
5556;DHT22;2801;50.972;7.856;2022-12-18T06:51:00;-6.40;99.90
5556;DHT22;2801;50.972;7.856;2022-12-18T06:53:28;-6.30;99.90
5556;DHT22;2801;50.972;7.856;2022-12-18T06:56:05;-6.40;99.90
5556;DHT22;2801;50.972;7.856;2022-12-18T06:58:37;-6.40;99.90
5556;DHT22;2801;50.972;7.856;2022-12-18T07:01:07;-6.30;99.90
5556;DHT22;2801;50.972;7.856;2022-12-18T07:03:37;-6.20;99.90
5556;DHT22;2801;50.972;7.856;2022-12-18T07:06:14;-6.20;99.90
5556;DHT22;2801;50.972;7.856;2022-12-18T07:08:43;-6.20;99.90
5556;DHT22;2801;50.972;7.856;2022-12-18T07:11:12;-6.20;99.90
5556;DHT22;2801;50.972;7.856;2022-12-18T07:13:40;-6.20;99.90
5556;DHT22;2801;50.972;7.856;2022-12-18T07:16:17;-6.30;99.90
5556;DHT22;2801;50.972;7.856;2022-12-18T07:18:51;-6.30;99.90
5556;DHT22;2801;50.972;7.856;2022-12-18T07:21:20;-6.30;99.90
5556;DHT22;2801;50.972;7.856;2022-12-18T07:23:48;-6.30;99.90
5556;DHT22;2801;50.972;7.856;2022-12-18T07:26:18;-6.10;99.90
5556;DHT22;2801;50.972;7.856;2022-12-18T07:28:46;-6.10;99.90
5556;DHT22;2801;50.972;7.856;2022-12-18T07:31:19;-6.10;99.90
5556;DHT22;2801;50.972;7.856;2022-12-18T07:33:48;-6.10;99.90
5556;DHT22;2801;50.972;7.856;2022-12-18T07:36:15;-6.10;99.90
5556;DHT22;2801;50.972;7.856;2022-12-18T07:38:43;-6.00;99.90
5556;DHT22;2801;50.972;7.856;2022-12-18T07:41:12;-5.80;99.90
5556;DHT22;2801;50.972;7.856;2022-12-18T07:43:41;-5.80;99.90
5556;DHT22;2801;50.972;7.856;2022-12-18T07:46:10;-5.80;99.90
5556;DHT22;2801;50.972;7.856;2022-12-18T07:48:40;-5.70;99.90
5556;DHT22;2801;50.972;7.856;2022-12-18T07:51:12;-5.60;99.90
5556;DHT22;2801;50.972;7.856;2022-12-18T07:53:39;-5.50;99.90
5556;DHT22;2801;50.972;7.856;2022-12-18T07:56:10;-5.40;99.90
5556;DHT22;2801;50.972;7.856;2022-12-18T07:58:57;-5.30;99.90
5556;DHT22;2801;50.972;7.856;2022-12-18T08:01:26;-5.20;99.90
5556;DHT22;2801;50.972;7.856;2022-12-18T08:03:53;-5.20;99.90
5556;DHT22;2801;50.972;7.856;2022-12-18T08:06:22;-5.20;99.90
5556;DHT22;2801;50.972;7.856;2022-12-18T08:08:53;-5.10;99.90
5556;DHT22;2801;50.972;7.856;2022-12-18T08:11:23;-5.10;99.90
5556;DHT22;2801;50.972;7.856;2022-12-18T08:13:52;-5.10;99.90
5556;DHT22;2801;50.972;7.856;2022-12-18T08:16:21;-4.90;99.90
5556;DHT22;2801;50.972;7.856;2022-12-18T08:18:52;-4.80;99.90
5556;DHT22;2801;50.972;7.856;2022-12-18T08:21:26;-4.70;99.90
5556;DHT22;2801;50.972;7.856;2022-12-18T08:23:56;-4.70;99.90
5556;DHT22;2801;50.972;7.856;2022-12-18T08:26:26;-4.60;99.90
5556;DHT22;2801;50.972;7.856;2022-12-18T08:28:55;-4.60;99.90
5556;DHT22;2801;50.972;7.856;2022-12-18T08:31:24;-4.50;99.90
5556;DHT22;2801;50.972;7.856;2022-12-18T08:33:53;-4.40;99.90
5556;DHT22;2801;50.972;7.856;2022-12-18T08:36:21;-4.40;99.90
5556;DHT22;2801;50.972;7.856;2022-12-18T08:38:51;-4.20;99.90
5556;DHT22;2801;50.972;7.856;2022-12-18T08:41:19;-4.20;99.90
5556;DHT22;2801;50.972;7.856;2022-12-18T08:43:46;-4.20;99.90
5556;DHT22;2801;50.972;7.856;2022-12-18T08:46:36;-4.00;99.90
5556;DHT22;2801;50.972;7.856;2022-12-18T08:49:06;-4.10;99.90
5556;DHT22;2801;50.972;7.856;2022-12-18T08:51:34;-4.00;99.90
5556;DHT22;2801;50.972;7.856;2022-12-18T08:54:01;-3.90;99.90
5556;DHT22;2801;50.972;7.856;2022-12-18T08:56:30;-3.90;99.90
5556;DHT22;2801;50.972;7.856;2022-12-18T08:58:57;-3.90;99.90
5556;DHT22;2801;50.972;7.856;2022-12-18T09:01:24;-3.80;99.90
5556;DHT22;2801;50.972;7.856;2022-12-18T09:03:51;-3.80;99.90
5556;DHT22;2801;50.972;7.856;2022-12-18T09:06:22;-3.70;99.90
5556;DHT22;2801;50.972;7.856;2022-12-18T09:08:50;-3.70;99.90
5556;DHT22;2801;50.972;7.856;2022-12-18T09:11:26;-3.60;99.90
5556;DHT22;2801;50.972;7.856;2022-12-18T09:13:55;-3.50;99.90
5556;DHT22;2801;50.972;7.856;2022-12-18T09:16:23;-3.40;99.90
5556;DHT22;2801;50.972;7.856;2022-12-18T09:18:59;-3.30;99.90
5556;DHT22;2801;50.972;7.856;2022-12-18T09:21:28;-3.20;99.90
5556;DHT22;2801;50.972;7.856;2022-12-18T09:23:58;-3.10;99.90
5556;DHT22;2801;50.972;7.856;2022-12-18T09:26:26;-2.90;99.90
5556;DHT22;2801;50.972;7.856;2022-12-18T09:28:53;-2.50;99.90
5556;DHT22;2801;50.972;7.856;2022-12-18T09:31:22;-2.10;99.90
5556;DHT22;2801;50.972;7.856;2022-12-18T09:33:50;-1.60;99.90
5556;DHT22;2801;50.972;7.856;2022-12-18T09:36:18;-1.40;99.90
5556;DHT22;2801;50.972;7.856;2022-12-18T09:38:45;-1.50;99.90
5556;DHT22;2801;50.972;7.856;2022-12-18T09:41:46;-1.70;99.90
5556;DHT22;2801;50.972;7.856;2022-12-18T09:44:25;-2.00;99.90
5556;DHT22;2801;50.972;7.856;2022-12-18T09:47:25;-2.10;99.90
5556;DHT22;2801;50.972;7.856;2022-12-18T09:50:02;-2.20;99.90
5556;DHT22;2801;50.972;7.856;2022-12-18T09:52:43;-2.30;99.90
5556;DHT22;2801;50.972;7.856;2022-12-18T09:55:21;-2.30;99.90
5556;DHT22;2801;50.972;7.856;2022-12-18T09:58:30;-2.30;99.90
5556;DHT22;2801;50.972;7.856;2022-12-18T10:01:02;-2.30;99.90
5556;DHT22;2801;50.972;7.856;2022-12-18T10:03:33;-2.30;99.90
5556;DHT22;2801;50.972;7.856;2022-12-18T10:06:15;-2.30;99.90
5556;DHT22;2801;50.972;7.856;2022-12-18T10:09:36;-2.20;99.90
5556;DHT22;2801;50.972;7.856;2022-12-18T10:15:13;-2.10;99.90
5556;DHT22;2801;50.972;7.856;2022-12-18T10:17:57;-2.10;99.90
5556;DHT22;2801;50.972;7.856;2022-12-18T10:20:47;-2.00;99.90
5556;DHT22;2801;50.972;7.856;2022-12-18T10:23:29;-1.90;99.90
5556;DHT22;2801;50.972;7.856;2022-12-18T10:26:13;-1.80;99.90
5556;DHT22;2801;50.972;7.856;2022-12-18T10:28:41;-1.80;99.90
5556;DHT22;2801;50.972;7.856;2022-12-18T10:31:18;-1.70;99.90
5556;DHT22;2801;50.972;7.856;2022-12-18T10:33:50;-1.70;99.90
5556;DHT22;2801;50.972;7.856;2022-12-18T10:36:20;-1.60;99.90
5556;DHT22;2801;50.972;7.856;2022-12-18T10:38:49;-1.60;99.90
5556;DHT22;2801;50.972;7.856;2022-12-18T10:43:48;-1.50;99.90
5556;DHT22;2801;50.972;7.856;2022-12-18T10:46:38;-1.50;99.90
5556;DHT22;2801;50.972;7.856;2022-12-18T10:49:07;-1.40;99.90
5556;DHT22;2801;50.972;7.856;2022-12-18T10:51:45;-1.30;99.90
5556;DHT22;2801;50.972;7.856;2022-12-18T10:54:17;-1.30;99.90
5556;DHT22;2801;50.972;7.856;2022-12-18T10:56:48;-1.30;99.90
5556;DHT22;2801;50.972;7.856;2022-12-18T10:59:18;-1.20;99.90
5556;DHT22;2801;50.972;7.856;2022-12-18T11:01:56;-1.20;99.90
5556;DHT22;2801;50.972;7.856;2022-12-18T11:04:26;-1.10;99.90
5556;DHT22;2801;50.972;7.856;2022-12-18T11:07:03;-1.10;99.90
5556;DHT22;2801;50.972;7.856;2022-12-18T11:09:32;-1.00;99.90
5556;DHT22;2801;50.972;7.856;2022-12-18T11:12:15;-0.90;99.90
5556;DHT22;2801;50.972;7.856;2022-12-18T11:14:46;-0.90;99.90
5556;DHT22;2801;50.972;7.856;2022-12-18T11:17:28;-0.90;99.90
5556;DHT22;2801;50.972;7.856;2022-12-18T11:20:05;-0.80;99.90
5556;DHT22;2801;50.972;7.856;2022-12-18T11:22:58;-0.80;99.90
5556;DHT22;2801;50.972;7.856;2022-12-18T11:25:32;-0.80;99.90
5556;DHT22;2801;50.972;7.856;2022-12-18T11:28:04;-0.80;99.90
5556;DHT22;2801;50.972;7.856;2022-12-18T11:31:31;-0.90;99.90
5556;DHT22;2801;50.972;7.856;2022-12-18T11:34:14;-0.90;99.90
5556;DHT22;2801;50.972;7.856;2022-12-18T11:36:57;-0.90;99.90
5556;DHT22;2801;50.972;7.856;2022-12-18T11:39:37;-0.90;99.90
5556;DHT22;2801;50.972;7.856;2022-12-18T11:42:39;-1.00;99.90
5556;DHT22;2801;50.972;7.856;2022-12-18T11:47:49;-0.90;99.90
5556;DHT22;2801;50.972;7.856;2022-12-18T11:53:29;-1.00;99.90
5556;DHT22;2801;50.972;7.856;2022-12-18T11:56:13;-1.00;99.90
5556;DHT22;2801;50.972;7.856;2022-12-18T12:01:56;-1.00;99.90
5556;DHT22;2801;50.972;7.856;2022-12-18T12:07:39;-1.00;99.90
5556;DHT22;2801;50.972;7.856;2022-12-18T12:11:05;-0.90;99.90
5556;DHT22;2801;50.972;7.856;2022-12-18T12:17:32;-0.80;99.90
5556;DHT22;2801;50.972;7.856;2022-12-18T12:20:22;-1.00;99.90
5556;DHT22;2801;50.972;7.856;2022-12-18T12:23:12;-1.00;99.90
5556;DHT22;2801;50.972;7.856;2022-12-18T12:26:08;-1.10;99.90
5556;DHT22;2801;50.972;7.856;2022-12-18T12:40:03;-1.30;99.90
5556;DHT22;2801;50.972;7.856;2022-12-18T12:42:58;-1.20;99.90
5556;DHT22;2801;50.972;7.856;2022-12-18T12:46:06;-1.30;99.90
5556;DHT22;2801;50.972;7.856;2022-12-18T12:48:43;-1.40;99.90
5556;DHT22;2801;50.972;7.856;2022-12-18T12:53:47;-1.40;99.90
5556;DHT22;2801;50.972;7.856;2022-12-18T12:56:18;-1.50;99.90
5556;DHT22;2801;50.972;7.856;2022-12-18T12:59:11;-1.50;99.90
5556;DHT22;2801;50.972;7.856;2022-12-18T13:05:14;-1.70;99.90
5556;DHT22;2801;50.972;7.856;2022-12-18T13:08:11;-1.80;99.90
5556;DHT22;2801;50.972;7.856;2022-12-18T13:10:49;-1.90;99.90
5556;DHT22;2801;50.972;7.856;2022-12-18T13:13:53;-2.00;99.90
5556;DHT22;2801;50.972;7.856;2022-12-18T13:16:25;-2.00;99.90
5556;DHT22;2801;50.972;7.856;2022-12-18T13:18:57;-2.10;99.90
5556;DHT22;2801;50.972;7.856;2022-12-18T13:21:30;-2.10;99.90
5556;DHT22;2801;50.972;7.856;2022-12-18T13:24:22;-2.20;99.90
5556;DHT22;2801;50.972;7.856;2022-12-18T13:26:52;-2.20;99.90
5556;DHT22;2801;50.972;7.856;2022-12-18T13:29:55;-2.20;99.90
5556;DHT22;2801;50.972;7.856;2022-12-18T13:32:24;-2.20;99.90
5556;DHT22;2801;50.972;7.856;2022-12-18T13:37:53;-2.20;99.90
5556;DHT22;2801;50.972;7.856;2022-12-18T13:46:05;-2.40;99.90
5556;DHT22;2801;50.972;7.856;2022-12-18T13:49:03;-2.50;99.90
5556;DHT22;2801;50.972;7.856;2022-12-18T13:51:50;-2.60;99.90
5556;DHT22;2801;50.972;7.856;2022-12-18T13:54:37;-2.70;99.90
5556;DHT22;2801;50.972;7.856;2022-12-18T13:57:32;-2.70;99.90
5556;DHT22;2801;50.972;7.856;2022-12-18T14:00:28;-2.80;99.90
5556;DHT22;2801;50.972;7.856;2022-12-18T14:03:17;-2.90;99.90
5556;DHT22;2801;50.972;7.856;2022-12-18T14:05:54;-3.00;99.90
5556;DHT22;2801;50.972;7.856;2022-12-18T14:08:33;-3.00;99.90
5556;DHT22;2801;50.972;7.856;2022-12-18T14:11:06;-3.10;99.90
5556;DHT22;2801;50.972;7.856;2022-12-18T14:13:40;-3.10;99.90
5556;DHT22;2801;50.972;7.856;2022-12-18T14:16:14;-3.30;99.90
5556;DHT22;2801;50.972;7.856;2022-12-18T14:18:57;-3.20;99.90
5556;DHT22;2801;50.972;7.856;2022-12-18T14:21:46;-3.40;99.90
5556;DHT22;2801;50.972;7.856;2022-12-18T14:24:20;-3.40;99.90
5556;DHT22;2801;50.972;7.856;2022-12-18T14:26:49;-3.40;99.90
5556;DHT22;2801;50.972;7.856;2022-12-18T14:29:28;-3.50;99.90
5556;DHT22;2801;50.972;7.856;2022-12-18T14:32:06;-3.60;99.90
5556;DHT22;2801;50.972;7.856;2022-12-18T14:34:49;-3.60;99.90
5556;DHT22;2801;50.972;7.856;2022-12-18T14:37:21;-3.60;99.90
5556;DHT22;2801;50.972;7.856;2022-12-18T14:39:58;-3.70;99.90
5556;DHT22;2801;50.972;7.856;2022-12-18T14:42:36;-3.70;99.90
5556;DHT22;2801;50.972;7.856;2022-12-18T14:53:40;-3.70;99.90
5556;DHT22;2801;50.972;7.856;2022-12-18T14:56:23;-3.60;99.90
5556;DHT22;2801;50.972;7.856;2022-12-18T14:58:55;-3.60;99.90
5556;DHT22;2801;50.972;7.856;2022-12-18T15:01:33;-3.60;99.90
5556;DHT22;2801;50.972;7.856;2022-12-18T15:04:05;-3.60;99.90
5556;DHT22;2801;50.972;7.856;2022-12-18T15:10:15;-3.70;99.90
5556;DHT22;2801;50.972;7.856;2022-12-18T15:26:06;-3.80;99.90
5556;DHT22;2801;50.972;7.856;2022-12-18T15:28:48;-3.70;99.90
5556;DHT22;2801;50.972;7.856;2022-12-18T15:31:34;-3.90;99.90
5556;DHT22;2801;50.972;7.856;2022-12-18T15:34:10;-3.90;99.90
5556;DHT22;2801;50.972;7.856;2022-12-18T15:36:40;-4.00;99.90
5556;DHT22;2801;50.972;7.856;2022-12-18T15:39:12;-4.00;99.90
5556;DHT22;2801;50.972;7.856;2022-12-18T15:41:40;-4.00;99.90
5556;DHT22;2801;50.972;7.856;2022-12-18T15:44:22;-4.10;99.90
5556;DHT22;2801;50.972;7.856;2022-12-18T15:47:00;-4.20;99.90
5556;DHT22;2801;50.972;7.856;2022-12-18T15:49:27;-4.20;99.90
5556;DHT22;2801;50.972;7.856;2022-12-18T15:51:59;-4.20;99.90
5556;DHT22;2801;50.972;7.856;2022-12-18T15:54:28;-4.20;99.90
5556;DHT22;2801;50.972;7.856;2022-12-18T15:57:14;-4.20;99.90
5556;DHT22;2801;50.972;7.856;2022-12-18T15:59:51;-4.30;99.90
5556;DHT22;2801;50.972;7.856;2022-12-18T16:02:20;-4.30;99.90
5556;DHT22;2801;50.972;7.856;2022-12-18T16:04:51;-4.30;99.90
5556;DHT22;2801;50.972;7.856;2022-12-18T16:07:19;-4.40;99.90
5556;DHT22;2801;50.972;7.856;2022-12-18T16:09:51;-4.40;99.90
5556;DHT22;2801;50.972;7.856;2022-12-18T16:12:21;-4.40;99.90
5556;DHT22;2801;50.972;7.856;2022-12-18T16:14:50;-4.30;99.90
5556;DHT22;2801;50.972;7.856;2022-12-18T16:17:17;-4.30;99.90
5556;DHT22;2801;50.972;7.856;2022-12-18T16:19:44;-4.40;99.90
5556;DHT22;2801;50.972;7.856;2022-12-18T16:22:21;-4.40;99.90
5556;DHT22;2801;50.972;7.856;2022-12-18T16:24:51;-4.40;99.90
5556;DHT22;2801;50.972;7.856;2022-12-18T16:27:19;-4.40;99.90
5556;DHT22;2801;50.972;7.856;2022-12-18T16:29:46;-4.50;99.90
5556;DHT22;2801;50.972;7.856;2022-12-18T16:32:15;-4.50;99.90
5556;DHT22;2801;50.972;7.856;2022-12-18T16:34:44;-4.60;99.90
5556;DHT22;2801;50.972;7.856;2022-12-18T16:37:13;-4.60;99.90
5556;DHT22;2801;50.972;7.856;2022-12-18T16:39:42;-4.60;99.90
5556;DHT22;2801;50.972;7.856;2022-12-18T16:42:13;-4.70;99.90
5556;DHT22;2801;50.972;7.856;2022-12-18T16:44:46;-4.70;99.90
5556;DHT22;2801;50.972;7.856;2022-12-18T16:47:14;-4.60;99.90
5556;DHT22;2801;50.972;7.856;2022-12-18T16:49:42;-4.60;99.90
5556;DHT22;2801;50.972;7.856;2022-12-18T16:52:11;-4.60;99.90
5556;DHT22;2801;50.972;7.856;2022-12-18T16:54:38;-4.70;99.90
5556;DHT22;2801;50.972;7.856;2022-12-18T16:57:05;-4.70;99.90
5556;DHT22;2801;50.972;7.856;2022-12-18T16:59:35;-4.70;99.90
5556;DHT22;2801;50.972;7.856;2022-12-18T17:02:10;-4.70;99.90
5556;DHT22;2801;50.972;7.856;2022-12-18T17:04:40;-4.80;99.90
5556;DHT22;2801;50.972;7.856;2022-12-18T17:07:08;-4.70;99.90
5556;DHT22;2801;50.972;7.856;2022-12-18T17:09:36;-4.70;99.90
5556;DHT22;2801;50.972;7.856;2022-12-18T17:12:04;-4.80;99.90
5556;DHT22;2801;50.972;7.856;2022-12-18T17:14:32;-4.80;99.90
5556;DHT22;2801;50.972;7.856;2022-12-18T17:16:59;-4.70;99.90
5556;DHT22;2801;50.972;7.856;2022-12-18T17:19:46;-4.80;99.90
5556;DHT22;2801;50.972;7.856;2022-12-18T17:22:13;-4.80;99.90
5556;DHT22;2801;50.972;7.856;2022-12-18T17:24:40;-4.70;99.90
5556;DHT22;2801;50.972;7.856;2022-12-18T17:27:07;-4.70;99.90
5556;DHT22;2801;50.972;7.856;2022-12-18T17:29:34;-4.80;99.90
5556;DHT22;2801;50.972;7.856;2022-12-18T17:32:01;-4.70;99.90
5556;DHT22;2801;50.972;7.856;2022-12-18T17:34:28;-4.80;99.90
5556;DHT22;2801;50.972;7.856;2022-12-18T17:36:56;-4.80;99.90
5556;DHT22;2801;50.972;7.856;2022-12-18T17:39:23;-4.70;99.90
5556;DHT22;2801;50.972;7.856;2022-12-18T17:41:50;-4.70;99.90
5556;DHT22;2801;50.972;7.856;2022-12-18T17:44:17;-4.70;99.90
5556;DHT22;2801;50.972;7.856;2022-12-18T17:46:45;-4.60;99.90
5556;DHT22;2801;50.972;7.856;2022-12-18T17:49:12;-4.70;99.90
5556;DHT22;2801;50.972;7.856;2022-12-18T17:51:40;-4.60;99.90
5556;DHT22;2801;50.972;7.856;2022-12-18T17:54:09;-4.60;99.90
5556;DHT22;2801;50.972;7.856;2022-12-18T17:56:37;-4.60;99.90
5556;DHT22;2801;50.972;7.856;2022-12-18T17:59:05;-4.60;99.90
5556;DHT22;2801;50.972;7.856;2022-12-18T18:01:32;-4.60;99.90
5556;DHT22;2801;50.972;7.856;2022-12-18T18:04:04;-4.60;99.90
5556;DHT22;2801;50.972;7.856;2022-12-18T18:06:32;-4.60;99.90
5556;DHT22;2801;50.972;7.856;2022-12-18T18:09:04;-4.60;99.90
5556;DHT22;2801;50.972;7.856;2022-12-18T18:11:33;-4.50;99.90
5556;DHT22;2801;50.972;7.856;2022-12-18T18:14:21;-4.50;99.90
5556;DHT22;2801;50.972;7.856;2022-12-18T18:16:50;-4.50;99.90
5556;DHT22;2801;50.972;7.856;2022-12-18T18:19:20;-4.50;99.90